sensor_id;sensor_type;location;lat;lon;timestamp;P1;durP1;ratioP1;P2;durP2;ratioP2
65377;SDS011;51982;51.042;13.806;2022-10-17T00:02:20;6.03;;;4.00;;
65377;SDS011;51982;51.042;13.806;2022-10-17T00:04:45;8.68;;;4.03;;
65377;SDS011;51982;51.042;13.806;2022-10-17T00:07:10;6.90;;;4.03;;
65377;SDS011;51982;51.042;13.806;2022-10-17T00:09:35;8.13;;;3.90;;
65377;SDS011;51982;51.042;13.806;2022-10-17T00:12:01;6.80;;;3.60;;
65377;SDS011;51982;51.042;13.806;2022-10-17T00:14:26;5.20;;;3.75;;
65377;SDS011;51982;51.042;13.806;2022-10-17T00:16:52;5.85;;;4.05;;
65377;SDS011;51982;51.042;13.806;2022-10-17T00:19:17;6.82;;;3.72;;
65377;SDS011;51982;51.042;13.806;2022-10-17T00:21:42;5.15;;;3.50;;
65377;SDS011;51982;51.042;13.806;2022-10-17T00:24:07;5.57;;;3.95;;
65377;SDS011;51982;51.042;13.806;2022-10-17T00:26:33;10.10;;;3.75;;
65377;SDS011;51982;51.042;13.806;2022-10-17T00:28:58;7.70;;;3.95;;
65377;SDS011;51982;51.042;13.806;2022-10-17T00:31:23;7.72;;;3.63;;
65377;SDS011;51982;51.042;13.806;2022-10-17T00:33:49;7.28;;;3.65;;
65377;SDS011;51982;51.042;13.806;2022-10-17T00:36:20;5.53;;;3.60;;
65377;SDS011;51982;51.042;13.806;2022-10-17T00:38:50;6.90;;;3.72;;
65377;SDS011;51982;51.042;13.806;2022-10-17T00:41:18;7.03;;;3.78;;
65377;SDS011;51982;51.042;13.806;2022-10-17T00:43:53;5.18;;;3.75;;
65377;SDS011;51982;51.042;13.806;2022-10-17T00:46:25;4.75;;;3.60;;
65377;SDS011;51982;51.042;13.806;2022-10-17T00:48:52;5.85;;;3.80;;
65377;SDS011;51982;51.042;13.806;2022-10-17T00:51:20;7.60;;;3.78;;
65377;SDS011;51982;51.042;13.806;2022-10-17T00:53:53;7.45;;;3.72;;
65377;SDS011;51982;51.042;13.806;2022-10-17T00:56:19;7.05;;;3.80;;
65377;SDS011;51982;51.042;13.806;2022-10-17T00:58:45;6.90;;;3.90;;
65377;SDS011;51982;51.042;13.806;2022-10-17T01:01:11;7.00;;;3.85;;
65377;SDS011;51982;51.042;13.806;2022-10-17T01:03:36;7.03;;;3.90;;
65377;SDS011;51982;51.042;13.806;2022-10-17T01:06:02;5.68;;;3.95;;
65377;SDS011;51982;51.042;13.806;2022-10-17T01:08:27;7.97;;;3.72;;
65377;SDS011;51982;51.042;13.806;2022-10-17T01:13:34;7.35;;;3.70;;
65377;SDS011;51982;51.042;13.806;2022-10-17T01:16:07;5.35;;;3.42;;
65377;SDS011;51982;51.042;13.806;2022-10-17T01:18:41;6.70;;;3.30;;
65377;SDS011;51982;51.042;13.806;2022-10-17T01:24:02;6.10;;;3.63;;
65377;SDS011;51982;51.042;13.806;2022-10-17T01:34:54;6.25;;;3.40;;
65377;SDS011;51982;51.042;13.806;2022-10-17T01:37:32;5.55;;;3.20;;
65377;SDS011;51982;51.042;13.806;2022-10-17T01:40:08;6.07;;;3.28;;
65377;SDS011;51982;51.042;13.806;2022-10-17T01:42:54;4.70;;;3.55;;
65377;SDS011;51982;51.042;13.806;2022-10-17T01:47:52;7.70;;;3.40;;
65377;SDS011;51982;51.042;13.806;2022-10-17T01:50:24;4.75;;;3.30;;
65377;SDS011;51982;51.042;13.806;2022-10-17T01:53:04;6.18;;;3.53;;
65377;SDS011;51982;51.042;13.806;2022-10-17T01:55:37;4.72;;;3.58;;
65377;SDS011;51982;51.042;13.806;2022-10-17T01:58:06;6.03;;;3.83;;
65377;SDS011;51982;51.042;13.806;2022-10-17T02:00:35;10.57;;;3.53;;
65377;SDS011;51982;51.042;13.806;2022-10-17T02:03:04;7.75;;;3.80;;
65377;SDS011;51982;51.042;13.806;2022-10-17T02:05:32;5.25;;;3.40;;
65377;SDS011;51982;51.042;13.806;2022-10-17T02:08:01;7.75;;;3.40;;
65377;SDS011;51982;51.042;13.806;2022-10-17T02:10:31;5.07;;;3.17;;
65377;SDS011;51982;51.042;13.806;2022-10-17T02:13:16;5.43;;;3.10;;
65377;SDS011;51982;51.042;13.806;2022-10-17T02:21:39;8.88;;;4.47;;
65377;SDS011;51982;51.042;13.806;2022-10-17T02:29:48;9.07;;;4.82;;
65377;SDS011;51982;51.042;13.806;2022-10-17T02:32:20;9.35;;;4.88;;
65377;SDS011;51982;51.042;13.806;2022-10-17T02:34:51;7.57;;;4.75;;
65377;SDS011;51982;51.042;13.806;2022-10-17T02:37:22;6.05;;;3.92;;
65377;SDS011;51982;51.042;13.806;2022-10-17T02:39:51;9.68;;;4.50;;
65377;SDS011;51982;51.042;13.806;2022-10-17T02:42:19;8.63;;;4.60;;
65377;SDS011;51982;51.042;13.806;2022-10-17T02:44:46;8.07;;;4.47;;
65377;SDS011;51982;51.042;13.806;2022-10-17T02:49:42;16.50;;;9.40;;
65377;SDS011;51982;51.042;13.806;2022-10-17T02:52:19;22.30;;;12.85;;
65377;SDS011;51982;51.042;13.806;2022-10-17T02:54:52;23.95;;;12.73;;
65377;SDS011;51982;51.042;13.806;2022-10-17T02:57:25;23.03;;;12.37;;
65377;SDS011;51982;51.042;13.806;2022-10-17T03:00:12;22.40;;;13.13;;
65377;SDS011;51982;51.042;13.806;2022-10-17T03:02:40;24.33;;;13.13;;
65377;SDS011;51982;51.042;13.806;2022-10-17T03:05:08;27.85;;;15.35;;
65377;SDS011;51982;51.042;13.806;2022-10-17T03:07:35;29.67;;;16.00;;
65377;SDS011;51982;51.042;13.806;2022-10-17T03:10:00;25.27;;;14.30;;
65377;SDS011;51982;51.042;13.806;2022-10-17T03:12:25;30.80;;;15.75;;
65377;SDS011;51982;51.042;13.806;2022-10-17T03:14:50;30.88;;;17.15;;
65377;SDS011;51982;51.042;13.806;2022-10-17T03:17:16;32.45;;;17.08;;
65377;SDS011;51982;51.042;13.806;2022-10-17T03:19:41;30.02;;;17.35;;
65377;SDS011;51982;51.042;13.806;2022-10-17T03:22:06;33.67;;;17.95;;
65377;SDS011;51982;51.042;13.806;2022-10-17T03:24:31;21.23;;;12.68;;
65377;SDS011;51982;51.042;13.806;2022-10-17T03:26:57;26.25;;;14.15;;
65377;SDS011;51982;51.042;13.806;2022-10-17T03:29:22;26.98;;;13.55;;
65377;SDS011;51982;51.042;13.806;2022-10-17T03:31:47;19.60;;;11.05;;
65377;SDS011;51982;51.042;13.806;2022-10-17T03:34:13;15.18;;;8.63;;
65377;SDS011;51982;51.042;13.806;2022-10-17T03:36:40;21.13;;;11.10;;
65377;SDS011;51982;51.042;13.806;2022-10-17T03:39:05;24.40;;;11.57;;
65377;SDS011;51982;51.042;13.806;2022-10-17T03:41:31;16.85;;;9.75;;
65377;SDS011;51982;51.042;13.806;2022-10-17T03:43:56;20.25;;;12.13;;
65377;SDS011;51982;51.042;13.806;2022-10-17T03:46:21;15.88;;;8.85;;
65377;SDS011;51982;51.042;13.806;2022-10-17T03:48:46;20.48;;;10.82;;
65377;SDS011;51982;51.042;13.806;2022-10-17T03:51:12;25.60;;;11.20;;
65377;SDS011;51982;51.042;13.806;2022-10-17T03:53:37;19.33;;;11.25;;
65377;SDS011;51982;51.042;13.806;2022-10-17T03:56:09;22.52;;;10.88;;
65377;SDS011;51982;51.042;13.806;2022-10-17T03:58:39;20.25;;;10.57;;
65377;SDS011;51982;51.042;13.806;2022-10-17T04:01:06;20.33;;;10.20;;
65377;SDS011;51982;51.042;13.806;2022-10-17T04:03:32;18.75;;;10.48;;
65377;SDS011;51982;51.042;13.806;2022-10-17T04:05:58;20.00;;;10.73;;
65377;SDS011;51982;51.042;13.806;2022-10-17T04:08:24;27.48;;;11.23;;
65377;SDS011;51982;51.042;13.806;2022-10-17T04:10:50;19.45;;;11.70;;
65377;SDS011;51982;51.042;13.806;2022-10-17T04:13:15;19.45;;;10.70;;
65377;SDS011;51982;51.042;13.806;2022-10-17T04:15:41;20.83;;;9.50;;
65377;SDS011;51982;51.042;13.806;2022-10-17T04:18:06;16.40;;;9.68;;
65377;SDS011;51982;51.042;13.806;2022-10-17T04:20:33;18.63;;;10.30;;
65377;SDS011;51982;51.042;13.806;2022-10-17T04:22:58;19.55;;;10.45;;
65377;SDS011;51982;51.042;13.806;2022-10-17T04:25:24;23.50;;;11.85;;
65377;SDS011;51982;51.042;13.806;2022-10-17T04:27:49;27.88;;;11.70;;
65377;SDS011;51982;51.042;13.806;2022-10-17T04:30:14;21.35;;;11.98;;
65377;SDS011;51982;51.042;13.806;2022-10-17T04:32:40;22.73;;;11.55;;
65377;SDS011;51982;51.042;13.806;2022-10-17T04:35:05;25.48;;;11.73;;
65377;SDS011;51982;51.042;13.806;2022-10-17T04:37:31;22.17;;;12.23;;
65377;SDS011;51982;51.042;13.806;2022-10-17T04:39:56;23.60;;;12.43;;
65377;SDS011;51982;51.042;13.806;2022-10-17T04:42:21;26.35;;;12.75;;
65377;SDS011;51982;51.042;13.806;2022-10-17T04:44:47;23.30;;;12.27;;
65377;SDS011;51982;51.042;13.806;2022-10-17T04:47:12;24.17;;;12.20;;
65377;SDS011;51982;51.042;13.806;2022-10-17T04:49:37;29.02;;;13.57;;
65377;SDS011;51982;51.042;13.806;2022-10-17T04:52:02;27.13;;;14.05;;
65377;SDS011;51982;51.042;13.806;2022-10-17T04:54:28;26.05;;;13.70;;
65377;SDS011;51982;51.042;13.806;2022-10-17T04:56:53;28.33;;;13.63;;
65377;SDS011;51982;51.042;13.806;2022-10-17T04:59:18;27.00;;;14.88;;
65377;SDS011;51982;51.042;13.806;2022-10-17T05:01:44;30.90;;;16.38;;
65377;SDS011;51982;51.042;13.806;2022-10-17T05:04:09;37.15;;;18.20;;
65377;SDS011;51982;51.042;13.806;2022-10-17T05:06:35;43.42;;;19.30;;
65377;SDS011;51982;51.042;13.806;2022-10-17T05:09:01;45.30;;;21.40;;
65377;SDS011;51982;51.042;13.806;2022-10-17T05:11:27;47.45;;;20.88;;
65377;SDS011;51982;51.042;13.806;2022-10-17T05:13:57;43.72;;;21.77;;
65377;SDS011;51982;51.042;13.806;2022-10-17T05:16:24;42.72;;;21.65;;
65377;SDS011;51982;51.042;13.806;2022-10-17T05:18:51;48.95;;;23.33;;
65377;SDS011;51982;51.042;13.806;2022-10-17T05:21:18;48.25;;;22.33;;
65377;SDS011;51982;51.042;13.806;2022-10-17T05:23:44;51.35;;;23.48;;
65377;SDS011;51982;51.042;13.806;2022-10-17T05:26:10;45.95;;;22.25;;
65377;SDS011;51982;51.042;13.806;2022-10-17T05:28:35;46.67;;;22.50;;
65377;SDS011;51982;51.042;13.806;2022-10-17T05:31:04;48.00;;;22.83;;
65377;SDS011;51982;51.042;13.806;2022-10-17T05:33:30;46.00;;;22.35;;
65377;SDS011;51982;51.042;13.806;2022-10-17T05:35:56;48.97;;;23.08;;
65377;SDS011;51982;51.042;13.806;2022-10-17T05:38:22;47.95;;;22.48;;
65377;SDS011;51982;51.042;13.806;2022-10-17T05:40:47;42.05;;;21.80;;
65377;SDS011;51982;51.042;13.806;2022-10-17T05:43:13;45.70;;;22.73;;
65377;SDS011;51982;51.042;13.806;2022-10-17T05:45:38;46.42;;;21.90;;
65377;SDS011;51982;51.042;13.806;2022-10-17T05:48:04;44.55;;;22.00;;
65377;SDS011;51982;51.042;13.806;2022-10-17T05:50:30;44.42;;;22.55;;
65377;SDS011;51982;51.042;13.806;2022-10-17T05:52:55;51.20;;;23.40;;
65377;SDS011;51982;51.042;13.806;2022-10-17T05:55:21;43.65;;;22.20;;
65377;SDS011;51982;51.042;13.806;2022-10-17T05:57:47;48.00;;;22.27;;
65377;SDS011;51982;51.042;13.806;2022-10-17T06:00:13;45.97;;;23.73;;
65377;SDS011;51982;51.042;13.806;2022-10-17T06:02:38;45.30;;;22.75;;
65377;SDS011;51982;51.042;13.806;2022-10-17T06:05:04;47.38;;;24.50;;
65377;SDS011;51982;51.042;13.806;2022-10-17T06:07:29;49.63;;;23.80;;
65377;SDS011;51982;51.042;13.806;2022-10-17T06:09:54;47.03;;;23.80;;
65377;SDS011;51982;51.042;13.806;2022-10-17T06:12:20;49.22;;;24.67;;
65377;SDS011;51982;51.042;13.806;2022-10-17T06:14:45;53.78;;;24.92;;
65377;SDS011;51982;51.042;13.806;2022-10-17T06:17:10;47.47;;;23.75;;
65377;SDS011;51982;51.042;13.806;2022-10-17T06:19:36;46.20;;;23.58;;
65377;SDS011;51982;51.042;13.806;2022-10-17T06:22:01;44.83;;;23.35;;
65377;SDS011;51982;51.042;13.806;2022-10-17T06:24:26;44.33;;;23.33;;
65377;SDS011;51982;51.042;13.806;2022-10-17T06:26:51;46.45;;;22.50;;
65377;SDS011;51982;51.042;13.806;2022-10-17T06:29:17;43.83;;;22.25;;
65377;SDS011;51982;51.042;13.806;2022-10-17T06:31:42;41.05;;;22.15;;
65377;SDS011;51982;51.042;13.806;2022-10-17T06:34:07;38.53;;;20.77;;
65377;SDS011;51982;51.042;13.806;2022-10-17T06:36:33;37.63;;;21.73;;
65377;SDS011;51982;51.042;13.806;2022-10-17T06:38:58;38.85;;;22.55;;
65377;SDS011;51982;51.042;13.806;2022-10-17T06:41:23;42.63;;;23.25;;
65377;SDS011;51982;51.042;13.806;2022-10-17T06:43:49;36.65;;;21.20;;
65377;SDS011;51982;51.042;13.806;2022-10-17T06:46:16;38.40;;;21.95;;
65377;SDS011;51982;51.042;13.806;2022-10-17T06:48:42;43.05;;;21.65;;
65377;SDS011;51982;51.042;13.806;2022-10-17T06:51:08;35.35;;;20.25;;
65377;SDS011;51982;51.042;13.806;2022-10-17T06:53:35;38.47;;;21.25;;
65377;SDS011;51982;51.042;13.806;2022-10-17T06:56:02;37.15;;;20.08;;
65377;SDS011;51982;51.042;13.806;2022-10-17T06:58:29;37.35;;;21.23;;
65377;SDS011;51982;51.042;13.806;2022-10-17T07:00:59;35.67;;;20.42;;
65377;SDS011;51982;51.042;13.806;2022-10-17T07:03:25;35.58;;;19.98;;
65377;SDS011;51982;51.042;13.806;2022-10-17T07:05:51;31.08;;;19.10;;
65377;SDS011;51982;51.042;13.806;2022-10-17T07:08:17;32.55;;;19.25;;
65377;SDS011;51982;51.042;13.806;2022-10-17T07:10:43;30.23;;;18.05;;
65377;SDS011;51982;51.042;13.806;2022-10-17T07:13:08;32.28;;;19.90;;
65377;SDS011;51982;51.042;13.806;2022-10-17T07:15:33;32.55;;;19.77;;
65377;SDS011;51982;51.042;13.806;2022-10-17T07:17:59;32.25;;;19.90;;
65377;SDS011;51982;51.042;13.806;2022-10-17T07:20:24;33.05;;;20.80;;
65377;SDS011;51982;51.042;13.806;2022-10-17T07:22:49;36.00;;;21.27;;
65377;SDS011;51982;51.042;13.806;2022-10-17T07:25:14;36.10;;;19.65;;
65377;SDS011;51982;51.042;13.806;2022-10-17T07:27:40;32.92;;;19.48;;
65377;SDS011;51982;51.042;13.806;2022-10-17T07:30:05;33.13;;;20.33;;
65377;SDS011;51982;51.042;13.806;2022-10-17T07:32:31;31.95;;;19.45;;
65377;SDS011;51982;51.042;13.806;2022-10-17T07:34:56;34.55;;;19.38;;
65377;SDS011;51982;51.042;13.806;2022-10-17T07:37:22;34.53;;;19.70;;
65377;SDS011;51982;51.042;13.806;2022-10-17T07:39:47;32.47;;;20.02;;
65377;SDS011;51982;51.042;13.806;2022-10-17T07:42:13;34.47;;;20.02;;
65377;SDS011;51982;51.042;13.806;2022-10-17T07:44:38;38.65;;;20.65;;
65377;SDS011;51982;51.042;13.806;2022-10-17T07:47:03;34.72;;;19.02;;
65377;SDS011;51982;51.042;13.806;2022-10-17T07:49:29;32.53;;;19.25;;
65377;SDS011;51982;51.042;13.806;2022-10-17T07:51:54;30.52;;;18.73;;
65377;SDS011;51982;51.042;13.806;2022-10-17T07:54:20;25.25;;;14.43;;
65377;SDS011;51982;51.042;13.806;2022-10-17T07:56:45;36.38;;;18.45;;
65377;SDS011;51982;51.042;13.806;2022-10-17T07:59:14;25.50;;;15.85;;
65377;SDS011;51982;51.042;13.806;2022-10-17T08:01:42;31.92;;;19.17;;
65377;SDS011;51982;51.042;13.806;2022-10-17T08:04:08;29.48;;;18.17;;
65377;SDS011;51982;51.042;13.806;2022-10-17T08:06:33;30.98;;;18.98;;
65377;SDS011;51982;51.042;13.806;2022-10-17T08:08:58;29.65;;;17.67;;
65377;SDS011;51982;51.042;13.806;2022-10-17T08:11:25;33.13;;;17.98;;
65377;SDS011;51982;51.042;13.806;2022-10-17T08:13:50;29.83;;;18.63;;
65377;SDS011;51982;51.042;13.806;2022-10-17T08:16:16;31.67;;;17.45;;
65377;SDS011;51982;51.042;13.806;2022-10-17T08:18:41;28.75;;;17.92;;
65377;SDS011;51982;51.042;13.806;2022-10-17T08:21:07;27.42;;;17.65;;
65377;SDS011;51982;51.042;13.806;2022-10-17T08:23:33;30.45;;;17.23;;
65377;SDS011;51982;51.042;13.806;2022-10-17T08:26:03;26.85;;;17.00;;
65377;SDS011;51982;51.042;13.806;2022-10-17T08:28:30;29.15;;;17.02;;
65377;SDS011;51982;51.042;13.806;2022-10-17T08:31:02;28.33;;;17.02;;
65377;SDS011;51982;51.042;13.806;2022-10-17T08:33:32;28.60;;;17.50;;
65377;SDS011;51982;51.042;13.806;2022-10-17T08:35:58;28.95;;;16.83;;
65377;SDS011;51982;51.042;13.806;2022-10-17T08:38:24;27.92;;;16.75;;
65377;SDS011;51982;51.042;13.806;2022-10-17T08:40:50;29.42;;;17.73;;
65377;SDS011;51982;51.042;13.806;2022-10-17T08:43:25;28.13;;;17.75;;
65377;SDS011;51982;51.042;13.806;2022-10-17T08:45:59;30.50;;;17.75;;
65377;SDS011;51982;51.042;13.806;2022-10-17T08:48:27;30.23;;;17.73;;
65377;SDS011;51982;51.042;13.806;2022-10-17T08:50:59;28.70;;;17.30;;
65377;SDS011;51982;51.042;13.806;2022-10-17T08:54:03;52.63;;;17.35;;
65377;SDS011;51982;51.042;13.806;2022-10-17T08:56:25;31.35;;;17.48;;
65377;SDS011;51982;51.042;13.806;2022-10-17T08:58:54;26.90;;;17.70;;
65377;SDS011;51982;51.042;13.806;2022-10-17T09:09:30;33.75;;;17.58;;
65377;SDS011;51982;51.042;13.806;2022-10-17T09:15:10;32.47;;;18.52;;
65377;SDS011;51982;51.042;13.806;2022-10-17T09:20:26;25.92;;;16.58;;
65377;SDS011;51982;51.042;13.806;2022-10-17T09:25:39;29.53;;;18.00;;
65377;SDS011;51982;51.042;13.806;2022-10-17T09:28:12;29.27;;;18.33;;
65377;SDS011;51982;51.042;13.806;2022-10-17T09:30:53;25.85;;;17.10;;
65377;SDS011;51982;51.042;13.806;2022-10-17T09:33:26;27.58;;;17.38;;
65377;SDS011;51982;51.042;13.806;2022-10-17T09:35:54;27.08;;;16.85;;
65377;SDS011;51982;51.042;13.806;2022-10-17T09:38:21;27.23;;;17.00;;
65377;SDS011;51982;51.042;13.806;2022-10-17T09:40:58;25.80;;;16.98;;
65377;SDS011;51982;51.042;13.806;2022-10-17T09:43:25;29.90;;;16.38;;
65377;SDS011;51982;51.042;13.806;2022-10-17T09:48:46;20.98;;;13.30;;
65377;SDS011;51982;51.042;13.806;2022-10-17T09:51:15;29.60;;;15.68;;
65377;SDS011;51982;51.042;13.806;2022-10-17T09:53:41;25.63;;;16.05;;
65377;SDS011;51982;51.042;13.806;2022-10-17T09:56:11;26.30;;;16.83;;
65377;SDS011;51982;51.042;13.806;2022-10-17T09:58:44;26.88;;;16.58;;
65377;SDS011;51982;51.042;13.806;2022-10-17T10:01:18;30.10;;;16.58;;
65377;SDS011;51982;51.042;13.806;2022-10-17T10:03:47;25.92;;;15.65;;
65377;SDS011;51982;51.042;13.806;2022-10-17T10:08:56;26.08;;;15.10;;
65377;SDS011;51982;51.042;13.806;2022-10-17T10:11:42;22.13;;;14.70;;
65377;SDS011;51982;51.042;13.806;2022-10-17T10:14:11;25.88;;;13.65;;
65377;SDS011;51982;51.042;13.806;2022-10-17T10:16:52;23.90;;;15.45;;
65377;SDS011;51982;51.042;13.806;2022-10-17T10:19:32;27.20;;;15.20;;
65377;SDS011;51982;51.042;13.806;2022-10-17T10:21:59;21.95;;;14.13;;
65377;SDS011;51982;51.042;13.806;2022-10-17T10:24:27;22.08;;;12.73;;
65377;SDS011;51982;51.042;13.806;2022-10-17T10:26:53;25.08;;;15.40;;
65377;SDS011;51982;51.042;13.806;2022-10-17T10:29:22;21.17;;;13.38;;
65377;SDS011;51982;51.042;13.806;2022-10-17T10:31:54;23.05;;;15.00;;
65377;SDS011;51982;51.042;13.806;2022-10-17T10:34:31;26.95;;;14.90;;
65377;SDS011;51982;51.042;13.806;2022-10-17T10:37:14;24.67;;;14.90;;
65377;SDS011;51982;51.042;13.806;2022-10-17T10:42:29;23.88;;;14.55;;
65377;SDS011;51982;51.042;13.806;2022-10-17T10:44:58;22.15;;;14.20;;
65377;SDS011;51982;51.042;13.806;2022-10-17T10:47:29;21.92;;;14.15;;
65377;SDS011;51982;51.042;13.806;2022-10-17T10:50:06;22.27;;;14.70;;
65377;SDS011;51982;51.042;13.806;2022-10-17T10:52:55;25.67;;;15.00;;
65377;SDS011;51982;51.042;13.806;2022-10-17T10:55:33;24.52;;;13.85;;
65377;SDS011;51982;51.042;13.806;2022-10-17T11:06:29;26.42;;;14.27;;
65377;SDS011;51982;51.042;13.806;2022-10-17T11:09:10;24.17;;;13.93;;
65377;SDS011;51982;51.042;13.806;2022-10-17T11:11:38;21.23;;;13.68;;
65377;SDS011;51982;51.042;13.806;2022-10-17T11:14:16;25.13;;;13.45;;
65377;SDS011;51982;51.042;13.806;2022-10-17T11:16:47;18.92;;;12.68;;
65377;SDS011;51982;51.042;13.806;2022-10-17T11:19:23;18.70;;;12.95;;
65377;SDS011;51982;51.042;13.806;2022-10-17T11:22:01;20.75;;;13.25;;
65377;SDS011;51982;51.042;13.806;2022-10-17T11:24:34;22.27;;;13.75;;
65377;SDS011;51982;51.042;13.806;2022-10-17T11:27:04;29.25;;;14.43;;
65377;SDS011;51982;51.042;13.806;2022-10-17T11:29:32;20.63;;;13.25;;
65377;SDS011;51982;51.042;13.806;2022-10-17T11:32:01;22.90;;;13.70;;
65377;SDS011;51982;51.042;13.806;2022-10-17T11:34:31;21.65;;;13.15;;
65377;SDS011;51982;51.042;13.806;2022-10-17T11:37:02;18.75;;;13.40;;
65377;SDS011;51982;51.042;13.806;2022-10-17T11:39:40;17.90;;;12.73;;
65377;SDS011;51982;51.042;13.806;2022-10-17T11:42:18;17.88;;;13.00;;
65377;SDS011;51982;51.042;13.806;2022-10-17T11:44:49;23.85;;;12.75;;
65377;SDS011;51982;51.042;13.806;2022-10-17T11:47:38;21.42;;;13.50;;
65377;SDS011;51982;51.042;13.806;2022-10-17T11:50:23;22.02;;;13.10;;
65377;SDS011;51982;51.042;13.806;2022-10-17T11:53:07;19.45;;;12.30;;
65377;SDS011;51982;51.042;13.806;2022-10-17T11:55:35;22.65;;;13.00;;
65377;SDS011;51982;51.042;13.806;2022-10-17T11:58:17;20.90;;;13.18;;
65377;SDS011;51982;51.042;13.806;2022-10-17T12:01:12;17.75;;;12.15;;
65377;SDS011;51982;51.042;13.806;2022-10-17T12:04:00;16.95;;;11.77;;
65377;SDS011;51982;51.042;13.806;2022-10-17T12:06:51;19.33;;;12.50;;
65377;SDS011;51982;51.042;13.806;2022-10-17T12:09:59;23.38;;;11.63;;
65377;SDS011;51982;51.042;13.806;2022-10-17T12:12:48;25.45;;;12.05;;
65377;SDS011;51982;51.042;13.806;2022-10-17T12:20:28;19.10;;;12.43;;
65377;SDS011;51982;51.042;13.806;2022-10-17T12:23:18;21.05;;;12.63;;
65377;SDS011;51982;51.042;13.806;2022-10-17T12:30:54;18.95;;;10.73;;
65377;SDS011;51982;51.042;13.806;2022-10-17T12:33:29;22.08;;;11.50;;
65377;SDS011;51982;51.042;13.806;2022-10-17T12:36:35;21.17;;;11.77;;
65377;SDS011;51982;51.042;13.806;2022-10-17T12:38:52;17.88;;;12.52;;
65377;SDS011;51982;51.042;13.806;2022-10-17T12:46:42;18.00;;;11.75;;
65377;SDS011;51982;51.042;13.806;2022-10-17T12:52:17;18.73;;;11.45;;
65377;SDS011;51982;51.042;13.806;2022-10-17T12:54:57;16.17;;;10.98;;
65377;SDS011;51982;51.042;13.806;2022-10-17T13:02:49;17.58;;;11.95;;
65377;SDS011;51982;51.042;13.806;2022-10-17T13:05:23;18.15;;;11.10;;
65377;SDS011;51982;51.042;13.806;2022-10-17T13:07:52;21.50;;;11.98;;
65377;SDS011;51982;51.042;13.806;2022-10-17T13:10:20;19.58;;;12.52;;
65377;SDS011;51982;51.042;13.806;2022-10-17T13:12:49;17.38;;;11.90;;
65377;SDS011;51982;51.042;13.806;2022-10-17T13:15:18;20.60;;;13.10;;
65377;SDS011;51982;51.042;13.806;2022-10-17T13:17:44;21.80;;;12.35;;
65377;SDS011;51982;51.042;13.806;2022-10-17T13:20:19;18.58;;;12.32;;
65377;SDS011;51982;51.042;13.806;2022-10-17T13:22:49;23.50;;;13.57;;
65377;SDS011;51982;51.042;13.806;2022-10-17T13:25:15;21.33;;;12.63;;
65377;SDS011;51982;51.042;13.806;2022-10-17T13:27:42;17.20;;;12.07;;
65377;SDS011;51982;51.042;13.806;2022-10-17T13:30:24;24.52;;;13.43;;
65377;SDS011;51982;51.042;13.806;2022-10-17T13:35:35;18.77;;;12.38;;
65377;SDS011;51982;51.042;13.806;2022-10-17T13:38:03;19.08;;;12.55;;
65377;SDS011;51982;51.042;13.806;2022-10-17T13:40:31;23.65;;;12.98;;
65377;SDS011;51982;51.042;13.806;2022-10-17T13:43:04;20.38;;;13.70;;
65377;SDS011;51982;51.042;13.806;2022-10-17T13:45:43;18.08;;;12.35;;
65377;SDS011;51982;51.042;13.806;2022-10-17T13:48:19;22.25;;;13.10;;
65377;SDS011;51982;51.042;13.806;2022-10-17T13:50:47;21.88;;;14.52;;
65377;SDS011;51982;51.042;13.806;2022-10-17T13:56:04;21.27;;;14.45;;
65377;SDS011;51982;51.042;13.806;2022-10-17T14:01:07;23.15;;;11.60;;
65377;SDS011;51982;51.042;13.806;2022-10-17T14:03:33;28.17;;;12.85;;
65377;SDS011;51982;51.042;13.806;2022-10-17T14:06:13;28.27;;;14.63;;
65377;SDS011;51982;51.042;13.806;2022-10-17T14:08:44;28.63;;;14.93;;
65377;SDS011;51982;51.042;13.806;2022-10-17T14:11:31;22.27;;;14.55;;
65377;SDS011;51982;51.042;13.806;2022-10-17T14:13:58;25.38;;;15.00;;
65377;SDS011;51982;51.042;13.806;2022-10-17T14:16:25;22.98;;;13.57;;
65377;SDS011;51982;51.042;13.806;2022-10-17T14:18:57;21.25;;;14.60;;
65377;SDS011;51982;51.042;13.806;2022-10-17T14:21:24;21.73;;;14.48;;
65377;SDS011;51982;51.042;13.806;2022-10-17T14:24:10;23.95;;;14.07;;
65377;SDS011;51982;51.042;13.806;2022-10-17T14:26:54;22.65;;;13.20;;
65377;SDS011;51982;51.042;13.806;2022-10-17T14:29:48;22.60;;;14.50;;
65377;SDS011;51982;51.042;13.806;2022-10-17T14:32:15;22.92;;;14.60;;
65377;SDS011;51982;51.042;13.806;2022-10-17T14:34:42;22.60;;;14.40;;
65377;SDS011;51982;51.042;13.806;2022-10-17T14:37:23;25.02;;;14.52;;
65377;SDS011;51982;51.042;13.806;2022-10-17T14:39:49;23.83;;;14.93;;
65377;SDS011;51982;51.042;13.806;2022-10-17T14:42:19;25.52;;;14.55;;
65377;SDS011;51982;51.042;13.806;2022-10-17T14:44:47;21.63;;;14.52;;
65377;SDS011;51982;51.042;13.806;2022-10-17T14:47:16;24.27;;;15.07;;
65377;SDS011;51982;51.042;13.806;2022-10-17T14:49:47;22.63;;;15.07;;
65377;SDS011;51982;51.042;13.806;2022-10-17T14:54:39;24.30;;;15.80;;
65377;SDS011;51982;51.042;13.806;2022-10-17T14:57:13;21.95;;;14.55;;
65377;SDS011;51982;51.042;13.806;2022-10-17T14:59:41;25.77;;;16.52;;
65377;SDS011;51982;51.042;13.806;2022-10-17T15:02:07;24.05;;;15.38;;
65377;SDS011;51982;51.042;13.806;2022-10-17T15:04:33;23.85;;;14.57;;
65377;SDS011;51982;51.042;13.806;2022-10-17T15:06:58;27.23;;;15.50;;
65377;SDS011;51982;51.042;13.806;2022-10-17T15:09:23;26.08;;;16.15;;
65377;SDS011;51982;51.042;13.806;2022-10-17T15:11:52;23.58;;;15.10;;
65377;SDS011;51982;51.042;13.806;2022-10-17T15:14:18;21.42;;;15.57;;
65377;SDS011;51982;51.042;13.806;2022-10-17T15:16:43;30.73;;;16.53;;
65377;SDS011;51982;51.042;13.806;2022-10-17T15:19:08;21.63;;;14.70;;
65377;SDS011;51982;51.042;13.806;2022-10-17T15:21:36;27.00;;;15.10;;
65377;SDS011;51982;51.042;13.806;2022-10-17T15:24:01;25.58;;;15.65;;
65377;SDS011;51982;51.042;13.806;2022-10-17T15:26:29;25.48;;;15.68;;
65377;SDS011;51982;51.042;13.806;2022-10-17T15:28:55;24.45;;;14.57;;
65377;SDS011;51982;51.042;13.806;2022-10-17T15:31:21;23.45;;;15.30;;
65377;SDS011;51982;51.042;13.806;2022-10-17T15:33:48;26.05;;;14.52;;
65377;SDS011;51982;51.042;13.806;2022-10-17T15:36:33;23.52;;;15.15;;
65377;SDS011;51982;51.042;13.806;2022-10-17T15:39:03;26.85;;;15.70;;
65377;SDS011;51982;51.042;13.806;2022-10-17T15:41:29;23.77;;;16.25;;
65377;SDS011;51982;51.042;13.806;2022-10-17T15:43:55;22.70;;;15.38;;
65377;SDS011;51982;51.042;13.806;2022-10-17T15:46:22;27.23;;;15.93;;
65377;SDS011;51982;51.042;13.806;2022-10-17T15:48:49;22.45;;;15.57;;
65377;SDS011;51982;51.042;13.806;2022-10-17T15:51:15;27.63;;;16.00;;
65377;SDS011;51982;51.042;13.806;2022-10-17T15:53:41;22.92;;;15.43;;
65377;SDS011;51982;51.042;13.806;2022-10-17T15:56:07;25.80;;;16.13;;
65377;SDS011;51982;51.042;13.806;2022-10-17T15:58:39;31.73;;;16.67;;
65377;SDS011;51982;51.042;13.806;2022-10-17T16:01:05;25.50;;;16.38;;
65377;SDS011;51982;51.042;13.806;2022-10-17T16:03:31;25.50;;;16.88;;
65377;SDS011;51982;51.042;13.806;2022-10-17T16:05:57;26.27;;;16.23;;